createdAt,value
2022-12-25T00:02:00.710Z,10.13
2022-12-25T00:04:27.677Z,15.73
2022-12-25T00:06:55.493Z,12.90
2022-12-25T00:09:22.428Z,11.80
2022-12-25T00:11:49.128Z,11.80
2022-12-25T00:14:15.843Z,11.30
2022-12-25T00:16:42.787Z,11.53
2022-12-25T00:19:09.478Z,7.70
2022-12-25T00:21:36.252Z,9.03
2022-12-25T00:24:03.583Z,9.10
2022-12-25T00:26:30.373Z,11.07
2022-12-25T00:28:58.251Z,10.90
2022-12-25T00:31:25.654Z,10.27
2022-12-25T00:33:53.100Z,10.63
2022-12-25T00:36:21.986Z,7.43
2022-12-25T00:38:48.775Z,7.03
2022-12-25T00:41:38.389Z,9.40
2022-12-25T00:44:06.019Z,12.30
2022-12-25T00:46:32.773Z,9.47
2022-12-25T00:49:02.644Z,10.57
2022-12-25T00:51:29.389Z,8.60
2022-12-25T00:53:56.000Z,11.70
2022-12-25T00:56:22.739Z,10.80
2022-12-25T00:58:49.387Z,7.97
2022-12-25T01:01:16.155Z,8.47
2022-12-25T01:03:43.207Z,9.83
2022-12-25T01:06:12.760Z,9.20
2022-12-25T01:09:00.120Z,9.90
2022-12-25T01:11:27.590Z,9.57
2022-12-25T01:13:54.277Z,8.63
2022-12-25T01:16:21.309Z,9.67
2022-12-25T01:18:48.018Z,7.63
2022-12-25T01:21:17.623Z,11.13
2022-12-25T01:23:44.841Z,6.40
2022-12-25T01:26:13.417Z,7.07
2022-12-25T01:28:40.840Z,7.43
2022-12-25T01:31:14.612Z,7.00
2022-12-25T01:33:43.637Z,9.50
2022-12-25T01:36:24.952Z,8.80
2022-12-25T01:38:52.977Z,5.70
2022-12-25T01:41:22.098Z,6.00
2022-12-25T01:44:02.045Z,10.87
2022-12-25T01:46:29.848Z,8.83
2022-12-25T01:49:00.465Z,10.20
2022-12-25T01:51:37.011Z,8.93
2022-12-25T01:54:07.641Z,8.17
2022-12-25T01:56:37.592Z,10.30
2022-12-25T01:59:06.325Z,11.03
2022-12-25T02:01:33.171Z,9.30
2022-12-25T02:04:23.658Z,9.00
2022-12-25T02:06:51.685Z,8.83
2022-12-25T02:09:18.940Z,9.30
2022-12-25T02:11:58.856Z,9.50
2022-12-25T02:14:29.701Z,10.30
2022-12-25T02:17:13.213Z,11.93
2022-12-25T02:20:03.399Z,9.23
2022-12-25T02:22:57.669Z,7.67
2022-12-25T02:25:43.463Z,10.70
2022-12-25T02:28:25.123Z,10.87
2022-12-25T02:31:01.237Z,7.23
2022-12-25T02:33:55.781Z,6.37
2022-12-25T02:36:27.355Z,8.67
2022-12-25T02:39:17.590Z,8.77
2022-12-25T02:41:47.906Z,9.50
2022-12-25T02:44:39.600Z,10.73
2022-12-25T02:47:27.035Z,9.43
2022-12-25T02:50:14.907Z,8.80
2022-12-25T02:53:03.263Z,9.70
2022-12-25T02:55:57.404Z,11.80
2022-12-25T02:58:45.442Z,9.30
2022-12-25T03:01:36.532Z,8.97
2022-12-25T03:04:27.063Z,6.33
2022-12-25T03:07:06.070Z,8.23
2022-12-25T03:09:57.765Z,11.00
2022-12-25T03:12:37.535Z,7.40
2022-12-25T03:15:24.973Z,9.50
2022-12-25T03:17:52.102Z,6.77
2022-12-25T03:20:37.516Z,10.53
2022-12-25T03:23:23.043Z,9.53
2022-12-25T03:26:08.417Z,8.80
2022-12-25T03:28:36.259Z,8.03
2022-12-25T03:31:14.091Z,9.80
2022-12-25T03:34:22.996Z,7.27
2022-12-25T03:37:27.712Z,10.23
2022-12-25T03:40:56.092Z,12.43
2022-12-25T03:43:56.570Z,10.00
2022-12-25T03:46:45.428Z,7.90
2022-12-25T03:49:42.047Z,8.60
2022-12-25T03:52:32.575Z,8.90
2022-12-25T03:55:22.853Z,6.17
2022-12-25T03:58:08.537Z,8.60
2022-12-25T04:00:53.691Z,7.67
2022-12-25T04:03:39.109Z,7.40
2022-12-25T04:06:24.729Z,9.03
2022-12-25T04:09:10.005Z,7.80
2022-12-25T04:12:03.336Z,7.47
2022-12-25T04:14:48.814Z,7.23
2022-12-25T04:17:34.301Z,6.33
2022-12-25T04:20:19.645Z,6.90
2022-12-25T04:23:05.051Z,11.07
2022-12-25T04:25:50.475Z,7.30
2022-12-25T04:28:35.943Z,7.10
2022-12-25T04:31:21.980Z,9.70
2022-12-25T04:34:07.127Z,11.07
2022-12-25T04:36:33.820Z,7.63
2022-12-25T04:39:00.477Z,8.73
2022-12-25T04:41:27.143Z,12.33
2022-12-25T04:43:53.760Z,10.27
2022-12-25T04:46:20.426Z,12.03
2022-12-25T04:48:47.845Z,10.60
2022-12-25T04:51:17.753Z,9.70
2022-12-25T04:53:45.461Z,12.07
2022-12-25T04:56:12.597Z,10.20
2022-12-25T04:58:39.359Z,9.60
2022-12-25T05:01:06.244Z,9.23
2022-12-25T05:03:33.689Z,8.27
2022-12-25T05:06:01.364Z,8.87
2022-12-25T05:08:32.347Z,9.50
2022-12-25T05:10:59.243Z,11.73
2022-12-25T05:13:26.284Z,11.30
2022-12-25T05:15:53.211Z,11.77
2022-12-25T05:18:19.898Z,11.57
2022-12-25T05:20:54.631Z,7.53
2022-12-25T05:23:22.179Z,9.20
2022-12-25T05:25:49.021Z,9.97
2022-12-25T05:28:15.999Z,9.77
2022-12-25T05:30:42.802Z,11.50
2022-12-25T05:33:12.546Z,12.17
2022-12-25T05:35:39.985Z,10.00
2022-12-25T05:38:07.808Z,8.27
2022-12-25T05:40:34.850Z,8.20
2022-12-25T05:43:01.537Z,8.67
2022-12-25T05:45:28.332Z,6.80
2022-12-25T05:47:55.010Z,8.53
2022-12-25T05:50:21.718Z,6.73
2022-12-25T05:52:48.391Z,6.77
2022-12-25T05:55:15.098Z,5.97
2022-12-25T05:57:41.803Z,6.90
2022-12-25T06:00:11.783Z,7.90
2022-12-25T06:02:41.230Z,9.07
2022-12-25T06:05:08.403Z,8.47
2022-12-25T06:07:35.052Z,7.07
2022-12-25T06:10:01.737Z,7.50
2022-12-25T06:12:28.383Z,7.07
2022-12-25T06:14:54.996Z,8.00
2022-12-25T06:17:24.487Z,6.13
2022-12-25T06:19:51.130Z,7.70
2022-12-25T06:22:17.818Z,6.13
2022-12-25T06:24:44.555Z,5.83
2022-12-25T06:27:11.211Z,7.33
2022-12-25T06:29:37.919Z,7.80
2022-12-25T06:32:04.855Z,8.07
2022-12-25T06:34:31.557Z,8.50
2022-12-25T06:36:58.185Z,8.33
2022-12-25T06:39:25.550Z,10.63
2022-12-25T06:41:52.271Z,9.10
2022-12-25T06:44:18.993Z,6.20
2022-12-25T06:46:45.786Z,5.87
2022-12-25T06:49:12.628Z,8.13
2022-12-25T06:51:39.273Z,5.30
2022-12-25T06:54:06.415Z,6.50
2022-12-25T06:56:33.987Z,4.50
2022-12-25T06:59:06.481Z,5.63
2022-12-25T07:01:42.068Z,7.03
2022-12-25T07:04:38.320Z,4.73
2022-12-25T07:07:09.181Z,4.63
2022-12-25T07:09:38.731Z,4.17
2022-12-25T07:12:13.677Z,5.23
2022-12-25T07:14:40.797Z,4.33
2022-12-25T07:17:07.489Z,7.10
2022-12-25T07:19:36.145Z,6.10
2022-12-25T07:22:06.451Z,4.63
2022-12-25T07:24:33.168Z,6.53
2022-12-25T07:26:59.915Z,4.83
2022-12-25T07:29:26.627Z,5.60
2022-12-25T07:31:53.330Z,4.87
2022-12-25T07:34:20.119Z,5.10
2022-12-25T07:36:46.921Z,4.27
2022-12-25T07:39:13.812Z,4.80
2022-12-25T07:41:40.515Z,5.17
2022-12-25T07:44:14.600Z,4.37
2022-12-25T07:46:41.514Z,7.03
2022-12-25T07:49:08.180Z,5.00
2022-12-25T07:51:34.925Z,4.70
2022-12-25T07:54:01.654Z,4.33
2022-12-25T07:56:28.507Z,6.23
2022-12-25T07:58:55.202Z,5.80
2022-12-25T08:01:24.739Z,4.67
2022-12-25T08:03:52.533Z,5.30
2022-12-25T08:06:20.341Z,5.47
2022-12-25T08:08:47.157Z,4.27
2022-12-25T08:11:14.401Z,4.10
2022-12-25T08:13:41.296Z,4.90
2022-12-25T08:16:10.173Z,6.30
2022-12-25T08:18:38.107Z,6.03
2022-12-25T08:21:10.258Z,6.87
2022-12-25T08:23:39.357Z,5.20
2022-12-25T08:26:08.409Z,5.20
2022-12-25T08:28:35.939Z,6.43
2022-12-25T08:31:10.631Z,6.53
2022-12-25T08:33:37.567Z,3.83
2022-12-25T08:36:06.442Z,4.47
2022-12-25T08:38:33.460Z,3.33
2022-12-25T08:41:00.440Z,5.60
2022-12-25T08:43:27.285Z,6.53
2022-12-25T08:45:53.998Z,4.07
2022-12-25T08:48:20.805Z,4.77
2022-12-25T08:50:48.725Z,5.17
2022-12-25T08:53:15.910Z,3.37
2022-12-25T08:55:43.237Z,4.33
2022-12-25T08:58:10.658Z,4.00
2022-12-25T09:00:37.438Z,4.83
2022-12-25T09:03:04.427Z,4.90
2022-12-25T09:05:31.263Z,4.93
2022-12-25T09:07:57.942Z,3.97
2022-12-25T09:10:24.673Z,3.17
2022-12-25T09:12:51.327Z,4.60
2022-12-25T09:15:18.018Z,5.20
2022-12-25T09:17:44.865Z,4.43
2022-12-25T09:20:11.553Z,5.80
2022-12-25T09:22:38.425Z,5.20
2022-12-25T09:25:05.512Z,5.83
2022-12-25T09:27:32.266Z,5.57
2022-12-25T09:29:59.001Z,4.47
2022-12-25T09:32:25.696Z,4.87
2022-12-25T09:34:52.387Z,6.07
2022-12-25T09:37:19.074Z,5.03
2022-12-25T09:39:46.487Z,4.73
2022-12-25T09:42:23.942Z,3.77
2022-12-25T09:44:59.229Z,5.67
2022-12-25T09:47:30.924Z,4.43
2022-12-25T09:50:03.357Z,4.93
2022-12-25T09:52:33.025Z,5.57
2022-12-25T09:55:14.789Z,4.53
2022-12-25T09:57:45.780Z,4.40
2022-12-25T10:00:18.503Z,4.87
2022-12-25T10:02:55.673Z,4.23
2022-12-25T10:05:44.104Z,5.37
2022-12-25T10:08:39.375Z,5.90
2022-12-25T10:11:38.215Z,4.97
2022-12-25T10:14:10.904Z,5.23
2022-12-25T10:16:55.147Z,4.97
2022-12-25T10:19:50.657Z,5.33
2022-12-25T10:22:29.083Z,5.87
2022-12-25T10:24:59.216Z,4.57
2022-12-25T10:27:25.844Z,4.60
2022-12-25T10:29:56.412Z,4.63
2022-12-25T10:32:23.179Z,6.67
2022-12-25T10:34:50.590Z,5.97
2022-12-25T10:37:17.691Z,4.97
2022-12-25T10:39:46.904Z,5.60
2022-12-25T10:42:46.175Z,6.50
2022-12-25T10:45:12.940Z,5.03
2022-12-25T10:47:44.117Z,4.53
2022-12-25T10:50:26.052Z,5.23
2022-12-25T10:52:56.744Z,4.33
2022-12-25T10:55:28.389Z,5.23
2022-12-25T10:57:57.935Z,5.20
2022-12-25T11:00:27.817Z,6.73
2022-12-25T11:02:55.157Z,5.37
2022-12-25T11:05:33.577Z,5.83
2022-12-25T11:08:02.443Z,4.53
2022-12-25T11:10:33.863Z,7.30
2022-12-25T11:13:01.628Z,6.43
2022-12-25T11:15:42.786Z,6.30
2022-12-25T11:18:21.041Z,5.60
2022-12-25T11:20:52.891Z,5.73
2022-12-25T11:23:21.864Z,5.20
2022-12-25T11:26:02.826Z,4.53
2022-12-25T11:28:32.749Z,3.73
2022-12-25T11:31:02.856Z,4.13
2022-12-25T11:33:36.542Z,4.97
2022-12-25T11:36:14.053Z,3.63
2022-12-25T11:38:40.736Z,4.83
2022-12-25T11:41:12.760Z,5.77
2022-12-25T11:43:46.645Z,4.70
2022-12-25T11:46:45.298Z,4.35
2022-12-25T11:49:16.794Z,3.38
2022-12-25T11:51:47.200Z,4.95
2022-12-25T11:54:37.908Z,4.35
2022-12-25T11:57:06.365Z,4.18
2022-12-25T11:59:49.367Z,4.97
2022-12-25T12:02:28.270Z,5.07
2022-12-25T12:05:14.644Z,4.63
2022-12-25T12:07:52.445Z,4.10
2022-12-25T12:10:41.961Z,5.40
2022-12-25T12:13:30.976Z,3.90
2022-12-25T12:15:58.507Z,5.57
2022-12-25T12:18:27.992Z,8.25
2022-12-25T12:21:09.686Z,4.93
2022-12-25T12:23:57.179Z,6.27
2022-12-25T12:26:27.142Z,5.73
2022-12-25T12:28:57.580Z,5.30
2022-12-25T12:31:25.180Z,5.53
2022-12-25T12:33:56.487Z,3.53
2022-12-25T12:36:35.547Z,4.87
2022-12-25T12:39:05.033Z,4.40
2022-12-25T12:41:46.260Z,4.60
2022-12-25T12:44:15.995Z,5.70
2022-12-25T12:46:52.460Z,4.33
2022-12-25T12:49:32.218Z,4.30
2022-12-25T12:52:23.911Z,6.73
2022-12-25T12:55:09.067Z,4.47
2022-12-25T12:57:40.170Z,4.37
2022-12-25T13:00:19.905Z,4.47
2022-12-25T13:02:52.473Z,5.70
2022-12-25T13:05:48.879Z,3.93
2022-12-25T13:08:27.786Z,4.97
2022-12-25T13:11:12.765Z,4.10
2022-12-25T13:13:42.605Z,4.93
2022-12-25T13:16:34.537Z,4.80
2022-12-25T13:19:07.126Z,5.37
2022-12-25T13:21:34.919Z,5.20
2022-12-25T13:24:16.707Z,6.00
2022-12-25T13:26:43.740Z,5.33
2022-12-25T13:29:39.845Z,5.70
2022-12-25T13:32:18.100Z,5.70
2022-12-25T13:34:44.894Z,4.90
2022-12-25T13:37:17.809Z,5.93
2022-12-25T13:40:17.332Z,5.73
2022-12-25T13:42:46.778Z,4.57
2022-12-25T13:45:13.385Z,5.83
2022-12-25T13:47:49.923Z,4.97
2022-12-25T13:50:31.763Z,4.57
2022-12-25T13:53:12.140Z,5.63
2022-12-25T13:55:41.616Z,4.77
2022-12-25T13:58:25.015Z,5.00
2022-12-25T14:00:54.326Z,7.53
2022-12-25T14:03:27.841Z,7.87
2022-12-25T14:06:00.174Z,4.43
2022-12-25T14:08:31.489Z,3.93
2022-12-25T14:11:01.495Z,4.43
2022-12-25T14:13:30.283Z,5.60
2022-12-25T14:15:57.920Z,4.57
2022-12-25T14:18:25.985Z,4.00
2022-12-25T14:21:15.441Z,4.10
2022-12-25T14:23:48.509Z,5.30
2022-12-25T14:26:16.569Z,4.40
2022-12-25T14:28:48.364Z,5.60
2022-12-25T14:31:15.442Z,3.80
2022-12-25T14:33:45.556Z,4.83
2022-12-25T14:36:13.460Z,4.83
2022-12-25T14:38:43.772Z,5.47
2022-12-25T14:41:33.457Z,7.47
2022-12-25T14:44:25.436Z,7.03
2022-12-25T14:47:13.799Z,6.80
2022-12-25T14:49:40.833Z,7.30
2022-12-25T14:52:17.903Z,6.00
2022-12-25T14:55:00.810Z,4.97
2022-12-25T14:57:34.276Z,4.87
2022-12-25T15:00:10.366Z,5.40
2022-12-25T15:02:42.652Z,3.73
2022-12-25T15:05:30.373Z,4.90
2022-12-25T15:08:06.393Z,3.83
2022-12-25T15:13:21.387Z,4.00
2022-12-25T15:15:54.610Z,5.17
2022-12-25T15:18:27.458Z,3.43
2022-12-25T15:20:55.469Z,4.03
2022-12-25T15:23:22.289Z,3.60
2022-12-25T15:25:50.972Z,4.43
2022-12-25T15:28:18.510Z,4.63
2022-12-25T15:30:45.646Z,3.60
2022-12-25T15:33:17.051Z,5.33
2022-12-25T15:35:44.480Z,4.67
2022-12-25T15:38:13.081Z,5.20
2022-12-25T15:40:40.727Z,5.17
2022-12-25T15:43:14.557Z,5.47
2022-12-25T15:45:49.172Z,3.73
2022-12-25T15:48:15.848Z,5.23
2022-12-25T15:50:44.151Z,4.73
2022-12-25T15:53:10.985Z,5.70
2022-12-25T15:55:38.102Z,4.83
2022-12-25T15:58:04.739Z,5.27
2022-12-25T16:00:31.530Z,6.00
2022-12-25T16:02:58.403Z,4.63
2022-12-25T16:05:26.558Z,5.17
2022-12-25T16:07:53.169Z,4.50
2022-12-25T16:10:20.404Z,4.60
2022-12-25T16:12:47.406Z,5.27
2022-12-25T16:15:15.275Z,5.27
2022-12-25T16:17:42.508Z,4.87
2022-12-25T16:20:09.766Z,4.30
2022-12-25T16:22:39.999Z,4.37
2022-12-25T16:25:13.838Z,4.33
2022-12-25T16:27:40.622Z,4.30
2022-12-25T16:30:07.986Z,5.30
2022-12-25T16:32:35.191Z,5.40
2022-12-25T16:35:02.074Z,6.17
2022-12-25T16:37:29.173Z,6.93
2022-12-25T16:39:55.820Z,4.83
2022-12-25T16:42:22.616Z,4.23
2022-12-25T16:44:49.273Z,5.10
2022-12-25T16:47:15.947Z,4.47
2022-12-25T16:49:45.791Z,4.37
2022-12-25T16:52:12.447Z,5.03
2022-12-25T16:54:39.108Z,6.37
2022-12-25T16:57:05.872Z,4.57
2022-12-25T16:59:32.939Z,5.83
2022-12-25T17:01:59.748Z,4.30
2022-12-25T17:04:28.071Z,5.77
2022-12-25T17:06:54.835Z,6.23
2022-12-25T17:09:21.539Z,5.63
2022-12-25T17:11:48.497Z,5.30
2022-12-25T17:14:15.641Z,4.93
2022-12-25T17:16:42.694Z,5.30
2022-12-25T17:19:19.465Z,6.20
2022-12-25T17:21:47.297Z,7.00
2022-12-25T17:24:14.534Z,4.73
2022-12-25T17:26:44.084Z,5.20
2022-12-25T17:29:14.683Z,5.40
2022-12-25T17:31:45.343Z,6.63
2022-12-25T17:34:12.142Z,5.30
2022-12-25T17:36:38.849Z,5.33
2022-12-25T17:39:06.377Z,5.73
2022-12-25T17:41:33.417Z,5.70
2022-12-25T17:44:00.143Z,6.40
2022-12-25T17:46:29.223Z,5.70
2022-12-25T17:48:57.848Z,5.93
2022-12-25T17:51:27.173Z,5.80
2022-12-25T17:53:56.891Z,6.47
2022-12-25T17:56:24.390Z,5.53
2022-12-25T17:58:53.294Z,6.27
2022-12-25T18:01:20.862Z,7.47
2022-12-25T18:03:48.359Z,7.17
2022-12-25T18:06:19.219Z,6.90
2022-12-25T18:08:47.174Z,5.30
2022-12-25T18:11:16.809Z,6.90
2022-12-25T18:13:48.184Z,7.83
2022-12-25T18:16:15.613Z,6.33
2022-12-25T18:18:49.529Z,6.97
2022-12-25T18:21:18.699Z,6.67
2022-12-25T18:23:46.270Z,7.37
2022-12-25T18:26:13.868Z,7.90
2022-12-25T18:28:42.284Z,6.43
2022-12-25T18:31:20.344Z,7.57
2022-12-25T18:33:47.476Z,7.30
2022-12-25T18:36:16.328Z,8.07
2022-12-25T18:38:43.104Z,7.27
2022-12-25T18:41:10.525Z,8.43
2022-12-25T18:43:52.465Z,7.87
2022-12-25T18:46:24.869Z,7.63
2022-12-25T18:48:53.605Z,8.30
2022-12-25T18:51:20.297Z,9.27
2022-12-25T18:53:47.136Z,7.47
2022-12-25T18:56:17.501Z,7.00
2022-12-25T18:58:45.617Z,6.97
2022-12-25T19:01:18.433Z,7.43
2022-12-25T19:03:46.187Z,8.83
2022-12-25T19:06:17.978Z,8.07
2022-12-25T19:08:44.700Z,7.97
2022-12-25T19:11:11.467Z,9.20
2022-12-25T19:13:38.203Z,7.57
2022-12-25T19:16:05.475Z,7.73
2022-12-25T19:18:32.259Z,6.57
2022-12-25T19:21:04.151Z,7.87
2022-12-25T19:23:31.399Z,7.93
2022-12-25T19:25:58.186Z,7.03
2022-12-25T19:28:25.403Z,7.27
2022-12-25T19:30:54.123Z,7.43
2022-12-25T19:33:22.739Z,6.80
2022-12-25T19:35:49.855Z,7.27
2022-12-25T19:38:16.564Z,6.33
2022-12-25T19:41:00.244Z,8.77
2022-12-25T19:43:32.630Z,9.30
2022-12-25T19:46:00.475Z,9.23
2022-12-25T19:48:29.717Z,7.50
2022-12-25T19:50:56.736Z,7.93
2022-12-25T19:53:24.292Z,8.03
2022-12-25T19:55:55.421Z,7.93
2022-12-25T19:58:23.686Z,6.80
2022-12-25T20:01:01.493Z,7.80
2022-12-25T20:03:28.322Z,6.90
2022-12-25T20:05:55.117Z,6.93
2022-12-25T20:08:22.007Z,7.77
2022-12-25T20:10:49.175Z,7.30
2022-12-25T20:13:16.350Z,7.47
2022-12-25T20:15:43.062Z,8.17
2022-12-25T20:18:10.172Z,10.37
2022-12-25T20:20:36.888Z,5.53
2022-12-25T20:23:03.972Z,7.77
2022-12-25T20:25:30.591Z,7.03
2022-12-25T20:27:58.040Z,8.07
2022-12-25T20:30:24.805Z,8.43
2022-12-25T20:32:51.543Z,6.70
2022-12-25T20:35:18.950Z,5.60
2022-12-25T20:37:45.676Z,7.93
2022-12-25T20:40:12.681Z,5.70
2022-12-25T20:42:39.367Z,6.67
2022-12-25T20:45:07.726Z,5.63
2022-12-25T20:47:35.252Z,8.70
2022-12-25T20:50:02.208Z,6.57
2022-12-25T20:52:29.004Z,6.47
2022-12-25T20:54:55.676Z,7.27
2022-12-25T20:57:22.436Z,6.73
2022-12-25T20:59:49.307Z,7.20
2022-12-25T21:02:34.211Z,7.27
2022-12-25T21:05:07.910Z,5.63
2022-12-25T21:07:34.687Z,5.83
2022-12-25T21:10:01.291Z,6.17
2022-12-25T21:12:28.036Z,6.97
2022-12-25T21:14:54.842Z,7.47
2022-12-25T21:17:21.939Z,6.30
2022-12-25T21:19:49.558Z,6.10
2022-12-25T21:22:16.247Z,6.13
2022-12-25T21:24:42.969Z,8.17
2022-12-25T21:27:09.698Z,6.23
2022-12-25T21:29:36.621Z,6.63
2022-12-25T21:32:21.599Z,6.03
2022-12-25T21:34:48.288Z,6.50
2022-12-25T21:37:14.939Z,5.83
2022-12-25T21:39:41.661Z,5.70
2022-12-25T21:42:08.402Z,6.90
2022-12-25T21:44:35.093Z,6.00
2022-12-25T21:47:01.730Z,5.20
2022-12-25T21:49:47.014Z,6.30
2022-12-25T21:52:13.648Z,4.73
2022-12-25T21:54:40.324Z,4.30
2022-12-25T21:57:07.051Z,4.43
2022-12-25T21:59:33.740Z,5.23
2022-12-25T22:02:00.557Z,7.33
2022-12-25T22:04:27.398Z,5.60
2022-12-25T22:07:12.712Z,6.23
2022-12-25T22:09:39.423Z,4.57
2022-12-25T22:12:30.125Z,5.37
2022-12-25T22:15:02.991Z,5.97
2022-12-25T22:17:57.705Z,5.80
2022-12-25T22:20:27.873Z,4.60
2022-12-25T22:22:54.840Z,4.27
2022-12-25T22:25:21.948Z,3.93
2022-12-25T22:27:49.633Z,5.23
2022-12-25T22:30:19.113Z,4.80
2022-12-25T22:32:46.517Z,4.90
2022-12-25T22:35:13.809Z,3.70
2022-12-25T22:37:42.653Z,5.40
2022-12-25T22:40:12.490Z,5.80
2022-12-25T22:42:40.754Z,7.23
2022-12-25T22:45:08.093Z,5.03
2022-12-25T22:47:34.837Z,4.23
2022-12-25T22:50:01.694Z,4.87
2022-12-25T22:52:28.443Z,3.90
2022-12-25T22:54:55.114Z,3.60
2022-12-25T22:57:21.781Z,4.63
2022-12-25T22:59:48.449Z,5.20
2022-12-25T23:02:15.409Z,5.13
2022-12-25T23:04:42.248Z,5.47
2022-12-25T23:07:10.393Z,4.70
2022-12-25T23:09:37.031Z,3.37
2022-12-25T23:12:03.975Z,4.90
2022-12-25T23:14:39.734Z,4.27
2022-12-25T23:17:29.978Z,4.07
2022-12-25T23:20:17.490Z,4.03
2022-12-25T23:23:03.640Z,3.60
2022-12-25T23:25:48.983Z,3.80
2022-12-25T23:28:35.860Z,5.07
2022-12-25T23:31:02.653Z,3.60
2022-12-25T23:33:29.370Z,7.20
2022-12-25T23:35:56.029Z,3.77
2022-12-25T23:38:22.613Z,5.53
2022-12-25T23:40:49.295Z,4.60
2022-12-25T23:43:16.002Z,5.30
2022-12-25T23:45:42.671Z,3.47
2022-12-25T23:48:09.298Z,4.93
2022-12-25T23:50:37.585Z,4.83
2022-12-25T23:53:04.224Z,4.40
2022-12-25T23:55:30.924Z,5.13
2022-12-25T23:57:57.583Z,4.70
